sensor_id;sensor_type;location;lat;lon;timestamp;temperature;humidity
41481;DHT22;27217;51.220;5.308;2022-09-27T00:02:22;10.30;99.90
41481;DHT22;27217;51.220;5.308;2022-09-27T00:04:48;10.30;99.90
41481;DHT22;27217;51.220;5.308;2022-09-27T00:07:14;10.30;99.90
41481;DHT22;27217;51.220;5.308;2022-09-27T00:09:40;10.30;99.90
41481;DHT22;27217;51.220;5.308;2022-09-27T00:12:05;10.20;99.90
41481;DHT22;27217;51.220;5.308;2022-09-27T00:14:31;10.10;99.90
41481;DHT22;27217;51.220;5.308;2022-09-27T00:16:57;10.00;99.90
41481;DHT22;27217;51.220;5.308;2022-09-27T00:19:23;10.00;99.90
41481;DHT22;27217;51.220;5.308;2022-09-27T00:21:50;10.10;99.90
41481;DHT22;27217;51.220;5.308;2022-09-27T00:24:21;10.10;99.90
41481;DHT22;27217;51.220;5.308;2022-09-27T00:26:48;10.00;99.90
41481;DHT22;27217;51.220;5.308;2022-09-27T00:29:15;10.00;99.90
41481;DHT22;27217;51.220;5.308;2022-09-27T00:31:45;10.00;99.90
41481;DHT22;27217;51.220;5.308;2022-09-27T00:34:19;9.90;99.90
41481;DHT22;27217;51.220;5.308;2022-09-27T00:36:45;10.00;99.90
41481;DHT22;27217;51.220;5.308;2022-09-27T00:39:11;9.90;99.90
41481;DHT22;27217;51.220;5.308;2022-09-27T00:41:37;9.90;99.90
41481;DHT22;27217;51.220;5.308;2022-09-27T00:49:48;9.90;99.90
41481;DHT22;27217;51.220;5.308;2022-09-27T00:52:23;9.90;99.90
41481;DHT22;27217;51.220;5.308;2022-09-27T00:54:54;9.90;99.90
41481;DHT22;27217;51.220;5.308;2022-09-27T00:57:27;10.00;99.90
41481;DHT22;27217;51.220;5.308;2022-09-27T01:00:03;10.00;99.90
41481;DHT22;27217;51.220;5.308;2022-09-27T01:02:29;10.00;99.90
41481;DHT22;27217;51.220;5.308;2022-09-27T01:04:56;10.00;99.90
41481;DHT22;27217;51.220;5.308;2022-09-27T01:07:22;9.90;99.90
41481;DHT22;27217;51.220;5.308;2022-09-27T01:09:48;9.80;99.90
41481;DHT22;27217;51.220;5.308;2022-09-27T01:12:34;9.70;99.90
41481;DHT22;27217;51.220;5.308;2022-09-27T01:15:39;9.60;99.90
41481;DHT22;27217;51.220;5.308;2022-09-27T01:18:34;9.60;99.90
41481;DHT22;27217;51.220;5.308;2022-09-27T01:32:35;9.70;99.90
41481;DHT22;27217;51.220;5.308;2022-09-27T01:35:19;9.80;99.90
41481;DHT22;27217;51.220;5.308;2022-09-27T01:40:47;9.50;99.90
41481;DHT22;27217;51.220;5.308;2022-09-27T01:46:24;9.50;99.90
41481;DHT22;27217;51.220;5.308;2022-09-27T01:48:53;9.50;99.90
41481;DHT22;27217;51.220;5.308;2022-09-27T01:51:27;9.60;99.90
41481;DHT22;27217;51.220;5.308;2022-09-27T01:54:00;9.70;99.90
41481;DHT22;27217;51.220;5.308;2022-09-27T01:56:33;9.50;99.90
41481;DHT22;27217;51.220;5.308;2022-09-27T01:59:14;9.50;99.90
41481;DHT22;27217;51.220;5.308;2022-09-27T02:01:44;9.60;99.90
41481;DHT22;27217;51.220;5.308;2022-09-27T02:04:14;9.60;99.90
41481;DHT22;27217;51.220;5.308;2022-09-27T02:06:44;9.60;99.90
41481;DHT22;27217;51.220;5.308;2022-09-27T02:09:21;9.60;99.90
41481;DHT22;27217;51.220;5.308;2022-09-27T02:11:53;9.50;99.90
41481;DHT22;27217;51.220;5.308;2022-09-27T02:14:45;9.70;99.90
41481;DHT22;27217;51.220;5.308;2022-09-27T02:25:34;9.50;99.90
41481;DHT22;27217;51.220;5.308;2022-09-27T02:28:21;9.40;99.90
41481;DHT22;27217;51.220;5.308;2022-09-27T02:30:49;9.40;99.90
41481;DHT22;27217;51.220;5.308;2022-09-27T02:33:16;9.50;99.90
41481;DHT22;27217;51.220;5.308;2022-09-27T02:35:43;9.50;99.90
41481;DHT22;27217;51.220;5.308;2022-09-27T02:38:10;9.50;99.90
41481;DHT22;27217;51.220;5.308;2022-09-27T02:40:43;9.50;99.90
41481;DHT22;27217;51.220;5.308;2022-09-27T02:43:10;9.50;99.90
41481;DHT22;27217;51.220;5.308;2022-09-27T02:46:23;9.50;99.90
41481;DHT22;27217;51.220;5.308;2022-09-27T03:00:47;9.40;99.90
41481;DHT22;27217;51.220;5.308;2022-09-27T03:03:11;9.40;99.90
41481;DHT22;27217;51.220;5.308;2022-09-27T03:06:01;9.70;99.90
41481;DHT22;27217;51.220;5.308;2022-09-27T03:08:28;9.80;99.90
41481;DHT22;27217;51.220;5.308;2022-09-27T03:10:54;9.80;99.90
41481;DHT22;27217;51.220;5.308;2022-09-27T03:13:20;9.90;99.90
41481;DHT22;27217;51.220;5.308;2022-09-27T03:15:46;10.10;99.90
41481;DHT22;27217;51.220;5.308;2022-09-27T03:18:12;9.70;99.90
41481;DHT22;27217;51.220;5.308;2022-09-27T03:20:38;9.70;99.90
41481;DHT22;27217;51.220;5.308;2022-09-27T03:23:04;9.50;99.90
41481;DHT22;27217;51.220;5.308;2022-09-27T03:25:29;9.30;99.90
41481;DHT22;27217;51.220;5.308;2022-09-27T03:27:55;9.20;99.90
41481;DHT22;27217;51.220;5.308;2022-09-27T03:30:21;9.20;99.90
41481;DHT22;27217;51.220;5.308;2022-09-27T03:32:47;9.20;99.90
41481;DHT22;27217;51.220;5.308;2022-09-27T03:35:13;9.40;99.90
41481;DHT22;27217;51.220;5.308;2022-09-27T03:37:40;9.30;99.90
41481;DHT22;27217;51.220;5.308;2022-09-27T03:40:07;9.20;99.90
41481;DHT22;27217;51.220;5.308;2022-09-27T03:42:32;9.20;99.90
41481;DHT22;27217;51.220;5.308;2022-09-27T03:44:59;9.20;99.90
41481;DHT22;27217;51.220;5.308;2022-09-27T03:47:25;9.30;99.90
41481;DHT22;27217;51.220;5.308;2022-09-27T03:49:51;9.30;99.90
41481;DHT22;27217;51.220;5.308;2022-09-27T03:52:17;9.30;99.90
41481;DHT22;27217;51.220;5.308;2022-09-27T03:54:44;9.20;99.90
41481;DHT22;27217;51.220;5.308;2022-09-27T03:57:10;9.50;99.90
41481;DHT22;27217;51.220;5.308;2022-09-27T03:59:35;9.40;99.90
41481;DHT22;27217;51.220;5.308;2022-09-27T04:02:01;9.30;99.90
41481;DHT22;27217;51.220;5.308;2022-09-27T04:04:27;9.30;99.90
41481;DHT22;27217;51.220;5.308;2022-09-27T04:06:53;9.40;99.90
41481;DHT22;27217;51.220;5.308;2022-09-27T04:09:19;9.30;99.90
41481;DHT22;27217;51.220;5.308;2022-09-27T04:11:45;9.20;99.90
41481;DHT22;27217;51.220;5.308;2022-09-27T04:14:11;9.20;99.90
41481;DHT22;27217;51.220;5.308;2022-09-27T04:16:38;9.10;99.90
41481;DHT22;27217;51.220;5.308;2022-09-27T04:19:05;9.00;99.90
41481;DHT22;27217;51.220;5.308;2022-09-27T04:21:32;9.00;99.90
41481;DHT22;27217;51.220;5.308;2022-09-27T04:23:58;9.00;99.90
41481;DHT22;27217;51.220;5.308;2022-09-27T04:26:24;9.10;99.90
41481;DHT22;27217;51.220;5.308;2022-09-27T04:28:51;9.10;99.90
41481;DHT22;27217;51.220;5.308;2022-09-27T04:31:18;9.00;99.90
41481;DHT22;27217;51.220;5.308;2022-09-27T04:33:44;9.00;99.90
41481;DHT22;27217;51.220;5.308;2022-09-27T04:36:17;9.00;99.90
41481;DHT22;27217;51.220;5.308;2022-09-27T04:38:57;9.10;99.90
41481;DHT22;27217;51.220;5.308;2022-09-27T04:41:24;9.10;99.90
41481;DHT22;27217;51.220;5.308;2022-09-27T04:43:50;8.90;99.90
41481;DHT22;27217;51.220;5.308;2022-09-27T04:46:17;9.00;99.90
41481;DHT22;27217;51.220;5.308;2022-09-27T04:48:44;9.10;99.90
41481;DHT22;27217;51.220;5.308;2022-09-27T04:51:10;9.00;99.90
41481;DHT22;27217;51.220;5.308;2022-09-27T04:53:40;8.90;99.90
41481;DHT22;27217;51.220;5.308;2022-09-27T04:56:06;8.80;99.90
41481;DHT22;27217;51.220;5.308;2022-09-27T04:58:33;8.70;99.90
41481;DHT22;27217;51.220;5.308;2022-09-27T05:01:00;8.80;99.90
41481;DHT22;27217;51.220;5.308;2022-09-27T05:03:29;8.90;99.90
41481;DHT22;27217;51.220;5.308;2022-09-27T05:05:55;8.80;99.90
41481;DHT22;27217;51.220;5.308;2022-09-27T05:08:21;8.90;99.90
41481;DHT22;27217;51.220;5.308;2022-09-27T05:10:47;8.80;99.90
41481;DHT22;27217;51.220;5.308;2022-09-27T05:13:14;8.80;99.90
41481;DHT22;27217;51.220;5.308;2022-09-27T05:15:40;8.80;99.90
41481;DHT22;27217;51.220;5.308;2022-09-27T05:18:07;8.90;99.90
41481;DHT22;27217;51.220;5.308;2022-09-27T05:20:34;8.90;99.90
41481;DHT22;27217;51.220;5.308;2022-09-27T05:23:01;8.90;99.90
41481;DHT22;27217;51.220;5.308;2022-09-27T05:25:29;8.70;99.90
41481;DHT22;27217;51.220;5.308;2022-09-27T05:27:57;8.70;99.90
41481;DHT22;27217;51.220;5.308;2022-09-27T05:30:26;8.60;99.90
41481;DHT22;27217;51.220;5.308;2022-09-27T05:32:52;8.60;99.90
41481;DHT22;27217;51.220;5.308;2022-09-27T05:35:18;8.80;99.90
41481;DHT22;27217;51.220;5.308;2022-09-27T05:37:58;8.90;99.90
41481;DHT22;27217;51.220;5.308;2022-09-27T05:40:25;8.90;99.90
41481;DHT22;27217;51.220;5.308;2022-09-27T05:42:52;8.80;99.90
41481;DHT22;27217;51.220;5.308;2022-09-27T05:45:20;8.80;99.90
41481;DHT22;27217;51.220;5.308;2022-09-27T05:47:57;8.60;99.90
41481;DHT22;27217;51.220;5.308;2022-09-27T05:50:25;8.60;99.90
41481;DHT22;27217;51.220;5.308;2022-09-27T05:52:51;8.80;99.90
41481;DHT22;27217;51.220;5.308;2022-09-27T05:55:17;9.00;99.90
41481;DHT22;27217;51.220;5.308;2022-09-27T05:57:59;9.20;99.90
41481;DHT22;27217;51.220;5.308;2022-09-27T06:00:26;9.10;99.90
41481;DHT22;27217;51.220;5.308;2022-09-27T06:03:03;9.00;99.90
41481;DHT22;27217;51.220;5.308;2022-09-27T06:05:33;8.70;99.90
41481;DHT22;27217;51.220;5.308;2022-09-27T06:08:01;8.80;99.90
41481;DHT22;27217;51.220;5.308;2022-09-27T06:10:28;8.60;99.90
41481;DHT22;27217;51.220;5.308;2022-09-27T06:13:21;8.60;99.90
41481;DHT22;27217;51.220;5.308;2022-09-27T06:15:47;8.70;99.90
41481;DHT22;27217;51.220;5.308;2022-09-27T06:18:15;8.80;99.90
41481;DHT22;27217;51.220;5.308;2022-09-27T06:20:43;8.90;99.90
41481;DHT22;27217;51.220;5.308;2022-09-27T06:23:13;8.80;99.90
41481;DHT22;27217;51.220;5.308;2022-09-27T06:25:40;8.80;99.90
41481;DHT22;27217;51.220;5.308;2022-09-27T06:28:06;8.90;99.90
41481;DHT22;27217;51.220;5.308;2022-09-27T06:30:32;9.10;99.90
41481;DHT22;27217;51.220;5.308;2022-09-27T06:33:01;9.00;99.90
41481;DHT22;27217;51.220;5.308;2022-09-27T06:35:28;9.10;99.90
41481;DHT22;27217;51.220;5.308;2022-09-27T06:37:55;9.00;99.90
41481;DHT22;27217;51.220;5.308;2022-09-27T06:40:22;9.10;99.90
41481;DHT22;27217;51.220;5.308;2022-09-27T06:42:51;9.10;99.90
41481;DHT22;27217;51.220;5.308;2022-09-27T06:45:18;8.90;99.90
41481;DHT22;27217;51.220;5.308;2022-09-27T06:47:44;9.20;99.90
41481;DHT22;27217;51.220;5.308;2022-09-27T06:50:11;9.10;99.90
41481;DHT22;27217;51.220;5.308;2022-09-27T06:52:37;9.00;99.90
41481;DHT22;27217;51.220;5.308;2022-09-27T06:55:04;9.10;99.90
41481;DHT22;27217;51.220;5.308;2022-09-27T06:57:30;9.20;99.90
41481;DHT22;27217;51.220;5.308;2022-09-27T07:00:14;9.20;99.90
41481;DHT22;27217;51.220;5.308;2022-09-27T07:02:51;9.30;99.90
41481;DHT22;27217;51.220;5.308;2022-09-27T07:05:18;9.30;99.90
41481;DHT22;27217;51.220;5.308;2022-09-27T07:07:44;9.40;99.90
41481;DHT22;27217;51.220;5.308;2022-09-27T07:10:12;9.40;99.90
41481;DHT22;27217;51.220;5.308;2022-09-27T07:12:38;9.30;99.90
41481;DHT22;27217;51.220;5.308;2022-09-27T07:15:04;9.50;99.90
41481;DHT22;27217;51.220;5.308;2022-09-27T07:17:31;9.40;99.90
41481;DHT22;27217;51.220;5.308;2022-09-27T07:20:00;9.40;99.90
41481;DHT22;27217;51.220;5.308;2022-09-27T07:22:29;9.50;99.90
41481;DHT22;27217;51.220;5.308;2022-09-27T07:24:55;9.70;99.90
41481;DHT22;27217;51.220;5.308;2022-09-27T07:27:21;9.40;99.90
41481;DHT22;27217;51.220;5.308;2022-09-27T07:29:49;9.70;99.90
41481;DHT22;27217;51.220;5.308;2022-09-27T07:32:15;9.90;99.90
41481;DHT22;27217;51.220;5.308;2022-09-27T07:34:41;10.00;99.90
41481;DHT22;27217;51.220;5.308;2022-09-27T07:37:06;10.00;99.90
41481;DHT22;27217;51.220;5.308;2022-09-27T07:39:33;9.90;99.90
41481;DHT22;27217;51.220;5.308;2022-09-27T07:41:58;10.00;99.90
41481;DHT22;27217;51.220;5.308;2022-09-27T07:44:39;9.90;99.90
41481;DHT22;27217;51.220;5.308;2022-09-27T07:47:08;9.60;99.90
41481;DHT22;27217;51.220;5.308;2022-09-27T07:49:35;9.60;99.90
41481;DHT22;27217;51.220;5.308;2022-09-27T07:52:02;9.70;99.90
41481;DHT22;27217;51.220;5.308;2022-09-27T07:54:27;9.80;99.90
41481;DHT22;27217;51.220;5.308;2022-09-27T07:56:54;9.90;99.90
41481;DHT22;27217;51.220;5.308;2022-09-27T07:59:20;9.70;99.90
41481;DHT22;27217;51.220;5.308;2022-09-27T08:01:45;9.70;99.90
41481;DHT22;27217;51.220;5.308;2022-09-27T08:04:11;9.60;99.90
41481;DHT22;27217;51.220;5.308;2022-09-27T08:06:38;9.60;99.90
41481;DHT22;27217;51.220;5.308;2022-09-27T08:09:06;9.60;99.90
41481;DHT22;27217;51.220;5.308;2022-09-27T08:11:34;9.60;99.90
41481;DHT22;27217;51.220;5.308;2022-09-27T08:14:03;9.60;99.90
41481;DHT22;27217;51.220;5.308;2022-09-27T08:16:32;9.90;99.90
41481;DHT22;27217;51.220;5.308;2022-09-27T08:18:57;9.90;99.90
41481;DHT22;27217;51.220;5.308;2022-09-27T08:21:23;9.80;99.90
41481;DHT22;27217;51.220;5.308;2022-09-27T08:23:50;9.80;99.90
41481;DHT22;27217;51.220;5.308;2022-09-27T08:26:15;9.90;99.90
41481;DHT22;27217;51.220;5.308;2022-09-27T08:28:41;10.10;99.90
41481;DHT22;27217;51.220;5.308;2022-09-27T08:31:06;9.80;99.90
41481;DHT22;27217;51.220;5.308;2022-09-27T08:33:35;9.90;99.90
41481;DHT22;27217;51.220;5.308;2022-09-27T08:36:01;9.80;99.90
41481;DHT22;27217;51.220;5.308;2022-09-27T08:38:27;9.90;99.90
41481;DHT22;27217;51.220;5.308;2022-09-27T08:40:56;10.10;99.90
41481;DHT22;27217;51.220;5.308;2022-09-27T08:43:51;10.20;99.90
41481;DHT22;27217;51.220;5.308;2022-09-27T08:46:26;10.10;99.90
41481;DHT22;27217;51.220;5.308;2022-09-27T08:49:04;10.00;99.90
41481;DHT22;27217;51.220;5.308;2022-09-27T08:51:32;10.20;99.90
41481;DHT22;27217;51.220;5.308;2022-09-27T08:54:15;10.20;99.90
41481;DHT22;27217;51.220;5.308;2022-09-27T08:56:45;10.10;99.90
41481;DHT22;27217;51.220;5.308;2022-09-27T08:59:16;10.10;99.90
41481;DHT22;27217;51.220;5.308;2022-09-27T09:01:47;10.20;99.90
41481;DHT22;27217;51.220;5.308;2022-09-27T09:04:24;10.20;99.90
41481;DHT22;27217;51.220;5.308;2022-09-27T09:07:29;10.30;99.90
41481;DHT22;27217;51.220;5.308;2022-09-27T09:10:39;10.10;99.90
41481;DHT22;27217;51.220;5.308;2022-09-27T09:13:43;10.50;99.90
41481;DHT22;27217;51.220;5.308;2022-09-27T09:19:26;10.40;99.90
41481;DHT22;27217;51.220;5.308;2022-09-27T09:30:27;10.60;99.90
41481;DHT22;27217;51.220;5.308;2022-09-27T09:35:25;10.90;99.90
41481;DHT22;27217;51.220;5.308;2022-09-27T09:37:59;11.10;99.90
41481;DHT22;27217;51.220;5.308;2022-09-27T09:44:14;11.00;99.90
41481;DHT22;27217;51.220;5.308;2022-09-27T09:46:43;11.00;99.90
41481;DHT22;27217;51.220;5.308;2022-09-27T09:49:17;11.00;99.90
41481;DHT22;27217;51.220;5.308;2022-09-27T09:51:51;10.90;99.90
41481;DHT22;27217;51.220;5.308;2022-09-27T09:54:25;10.90;99.90
41481;DHT22;27217;51.220;5.308;2022-09-27T09:57:03;10.90;99.90
41481;DHT22;27217;51.220;5.308;2022-09-27T10:05:02;10.80;99.90
41481;DHT22;27217;51.220;5.308;2022-09-27T10:07:28;10.80;99.90
41481;DHT22;27217;51.220;5.308;2022-09-27T10:09:59;10.90;99.90
41481;DHT22;27217;51.220;5.308;2022-09-27T10:12:25;10.60;99.90
41481;DHT22;27217;51.220;5.308;2022-09-27T10:14:52;10.60;99.90
41481;DHT22;27217;51.220;5.308;2022-09-27T10:17:23;10.50;99.90
41481;DHT22;27217;51.220;5.308;2022-09-27T10:19:50;10.60;99.90
41481;DHT22;27217;51.220;5.308;2022-09-27T10:22:30;10.60;99.90
41481;DHT22;27217;51.220;5.308;2022-09-27T10:25:03;10.50;99.90
41481;DHT22;27217;51.220;5.308;2022-09-27T10:27:43;10.40;99.90
41481;DHT22;27217;51.220;5.308;2022-09-27T10:32:53;10.50;99.90
41481;DHT22;27217;51.220;5.308;2022-09-27T10:43:46;10.30;99.90
41481;DHT22;27217;51.220;5.308;2022-09-27T10:48:46;9.90;99.90
41481;DHT22;27217;51.220;5.308;2022-09-27T10:51:24;9.70;99.90
41481;DHT22;27217;51.220;5.308;2022-09-27T10:53:50;9.70;99.90
41481;DHT22;27217;51.220;5.308;2022-09-27T10:56:22;9.80;99.90
41481;DHT22;27217;51.220;5.308;2022-09-27T10:58:49;9.50;99.90
41481;DHT22;27217;51.220;5.308;2022-09-27T11:01:15;9.50;99.90
41481;DHT22;27217;51.220;5.308;2022-09-27T11:03:48;9.60;99.90
41481;DHT22;27217;51.220;5.308;2022-09-27T11:08:47;9.90;99.90
41481;DHT22;27217;51.220;5.308;2022-09-27T11:13:39;9.90;99.90
41481;DHT22;27217;51.220;5.308;2022-09-27T11:30:20;10.40;99.90
41481;DHT22;27217;51.220;5.308;2022-09-27T11:46:35;11.10;99.90
41481;DHT22;27217;51.220;5.308;2022-09-27T11:56:49;12.70;99.90
41481;DHT22;27217;51.220;5.308;2022-09-27T12:05:24;12.10;99.90
41481;DHT22;27217;51.220;5.308;2022-09-27T12:08:09;12.00;99.90
41481;DHT22;27217;51.220;5.308;2022-09-27T12:10:40;12.50;99.90
41481;DHT22;27217;51.220;5.308;2022-09-27T12:13:12;13.30;99.90
41481;DHT22;27217;51.220;5.308;2022-09-27T12:15:41;14.10;99.90
41481;DHT22;27217;51.220;5.308;2022-09-27T12:18:29;14.50;99.90
41481;DHT22;27217;51.220;5.308;2022-09-27T12:20:59;14.50;99.90
41481;DHT22;27217;51.220;5.308;2022-09-27T12:23:40;14.40;99.90
41481;DHT22;27217;51.220;5.308;2022-09-27T12:29:22;14.30;99.90
41481;DHT22;27217;51.220;5.308;2022-09-27T12:37:30;16.20;99.90
41481;DHT22;27217;51.220;5.308;2022-09-27T12:39:59;16.90;99.90
41481;DHT22;27217;51.220;5.308;2022-09-27T12:43:24;16.10;99.90
41481;DHT22;27217;51.220;5.308;2022-09-27T12:45:52;16.30;99.90
41481;DHT22;27217;51.220;5.308;2022-09-27T12:51:11;13.80;99.90
41481;DHT22;27217;51.220;5.308;2022-09-27T12:54:04;13.70;99.90
41481;DHT22;27217;51.220;5.308;2022-09-27T12:56:55;13.60;99.90
41481;DHT22;27217;51.220;5.308;2022-09-27T12:59:34;13.90;99.90
41481;DHT22;27217;51.220;5.308;2022-09-27T13:13:36;13.20;99.90
41481;DHT22;27217;51.220;5.308;2022-09-27T13:16:04;13.00;99.90
41481;DHT22;27217;51.220;5.308;2022-09-27T13:18:58;12.20;99.90
41481;DHT22;27217;51.220;5.308;2022-09-27T13:39:31;10.90;99.90
41481;DHT22;27217;51.220;5.308;2022-09-27T13:42:53;10.90;99.90
41481;DHT22;27217;51.220;5.308;2022-09-27T13:45:16;11.20;99.90
41481;DHT22;27217;51.220;5.308;2022-09-27T13:47:46;11.70;99.90
41481;DHT22;27217;51.220;5.308;2022-09-27T13:53:39;12.30;99.90
41481;DHT22;27217;51.220;5.308;2022-09-27T13:56:05;12.50;99.90
41481;DHT22;27217;51.220;5.308;2022-09-27T13:58:58;12.60;99.90
41481;DHT22;27217;51.220;5.308;2022-09-27T14:01:32;12.80;99.90
41481;DHT22;27217;51.220;5.308;2022-09-27T14:04:02;12.50;99.90
41481;DHT22;27217;51.220;5.308;2022-09-27T14:06:33;12.60;99.90
41481;DHT22;27217;51.220;5.308;2022-09-27T14:09:16;12.60;99.90
41481;DHT22;27217;51.220;5.308;2022-09-27T14:11:49;12.60;99.90
41481;DHT22;27217;51.220;5.308;2022-09-27T14:14:21;12.90;99.90
41481;DHT22;27217;51.220;5.308;2022-09-27T14:16:48;12.90;99.90
41481;DHT22;27217;51.220;5.308;2022-09-27T14:19:20;12.30;99.90
41481;DHT22;27217;51.220;5.308;2022-09-27T14:21:46;12.60;99.90
41481;DHT22;27217;51.220;5.308;2022-09-27T14:32:17;11.80;99.90
41481;DHT22;27217;51.220;5.308;2022-09-27T14:34:44;11.50;99.90
41481;DHT22;27217;51.220;5.308;2022-09-27T14:37:28;11.00;99.90
41481;DHT22;27217;51.220;5.308;2022-09-27T14:40:03;10.90;99.90
41481;DHT22;27217;51.220;5.308;2022-09-27T14:42:33;11.00;99.90
41481;DHT22;27217;51.220;5.308;2022-09-27T14:47:45;11.30;99.90
41481;DHT22;27217;51.220;5.308;2022-09-27T14:50:24;11.30;99.90
41481;DHT22;27217;51.220;5.308;2022-09-27T14:52:50;11.50;99.90
41481;DHT22;27217;51.220;5.308;2022-09-27T14:55:22;11.80;99.90
41481;DHT22;27217;51.220;5.308;2022-09-27T14:57:59;11.80;99.90
41481;DHT22;27217;51.220;5.308;2022-09-27T15:00:32;12.20;99.90
41481;DHT22;27217;51.220;5.308;2022-09-27T15:03:03;12.50;99.90
41481;DHT22;27217;51.220;5.308;2022-09-27T15:05:32;12.30;99.90
41481;DHT22;27217;51.220;5.308;2022-09-27T15:08:02;11.50;99.90
41481;DHT22;27217;51.220;5.308;2022-09-27T15:10:29;11.20;99.90
41481;DHT22;27217;51.220;5.308;2022-09-27T15:12:57;10.90;99.90
41481;DHT22;27217;51.220;5.308;2022-09-27T15:15:28;10.70;99.90
41481;DHT22;27217;51.220;5.308;2022-09-27T15:17:58;10.60;99.90
41481;DHT22;27217;51.220;5.308;2022-09-27T15:20:30;10.60;99.90
41481;DHT22;27217;51.220;5.308;2022-09-27T15:23:04;10.40;99.90
41481;DHT22;27217;51.220;5.308;2022-09-27T15:25:40;10.60;99.90
41481;DHT22;27217;51.220;5.308;2022-09-27T15:30:42;10.40;99.90
41481;DHT22;27217;51.220;5.308;2022-09-27T15:33:31;10.60;99.90
41481;DHT22;27217;51.220;5.308;2022-09-27T15:36:00;10.30;99.90
41481;DHT22;27217;51.220;5.308;2022-09-27T15:38:44;10.40;99.90
41481;DHT22;27217;51.220;5.308;2022-09-27T15:41:18;10.50;99.90
41481;DHT22;27217;51.220;5.308;2022-09-27T15:43:49;10.70;99.90
41481;DHT22;27217;51.220;5.308;2022-09-27T15:51:55;10.90;99.90
41481;DHT22;27217;51.220;5.308;2022-09-27T15:54:26;10.20;99.90
41481;DHT22;27217;51.220;5.308;2022-09-27T15:56:55;10.10;99.90
41481;DHT22;27217;51.220;5.308;2022-09-27T15:59:34;10.20;99.90
41481;DHT22;27217;51.220;5.308;2022-09-27T16:02:02;10.50;99.90
41481;DHT22;27217;51.220;5.308;2022-09-27T16:04:30;10.70;99.90
41481;DHT22;27217;51.220;5.308;2022-09-27T16:06:59;10.70;99.90
41481;DHT22;27217;51.220;5.308;2022-09-27T16:09:25;10.60;99.90
41481;DHT22;27217;51.220;5.308;2022-09-27T16:11:51;10.50;99.90
41481;DHT22;27217;51.220;5.308;2022-09-27T16:14:18;10.50;99.90
41481;DHT22;27217;51.220;5.308;2022-09-27T16:16:53;10.60;99.90
41481;DHT22;27217;51.220;5.308;2022-09-27T16:19:21;10.70;99.90
41481;DHT22;27217;51.220;5.308;2022-09-27T16:21:47;10.80;99.90
41481;DHT22;27217;51.220;5.308;2022-09-27T16:24:13;10.80;99.90
41481;DHT22;27217;51.220;5.308;2022-09-27T16:26:39;10.90;99.90
41481;DHT22;27217;51.220;5.308;2022-09-27T16:29:09;10.90;99.90
41481;DHT22;27217;51.220;5.308;2022-09-27T16:31:35;10.90;99.90
41481;DHT22;27217;51.220;5.308;2022-09-27T16:34:01;11.00;99.90
41481;DHT22;27217;51.220;5.308;2022-09-27T16:36:28;11.00;99.90
41481;DHT22;27217;51.220;5.308;2022-09-27T16:38:54;10.90;99.90
41481;DHT22;27217;51.220;5.308;2022-09-27T16:41:20;10.90;99.90
41481;DHT22;27217;51.220;5.308;2022-09-27T16:43:47;11.00;99.90
41481;DHT22;27217;51.220;5.308;2022-09-27T16:46:14;11.00;99.90
41481;DHT22;27217;51.220;5.308;2022-09-27T16:48:46;11.00;99.90
41481;DHT22;27217;51.220;5.308;2022-09-27T16:51:18;11.00;99.90
41481;DHT22;27217;51.220;5.308;2022-09-27T16:54:05;11.00;99.90
41481;DHT22;27217;51.220;5.308;2022-09-27T16:56:32;10.90;99.90
41481;DHT22;27217;51.220;5.308;2022-09-27T16:59:00;10.80;99.90
41481;DHT22;27217;51.220;5.308;2022-09-27T17:01:28;10.80;99.90
41481;DHT22;27217;51.220;5.308;2022-09-27T17:03:53;10.80;99.90
41481;DHT22;27217;51.220;5.308;2022-09-27T17:06:19;10.80;99.90
41481;DHT22;27217;51.220;5.308;2022-09-27T17:08:46;10.90;99.90
41481;DHT22;27217;51.220;5.308;2022-09-27T17:11:14;10.90;99.90
41481;DHT22;27217;51.220;5.308;2022-09-27T17:13:42;10.80;99.90
41481;DHT22;27217;51.220;5.308;2022-09-27T17:16:09;10.60;99.90
41481;DHT22;27217;51.220;5.308;2022-09-27T17:18:36;10.60;99.90
41481;DHT22;27217;51.220;5.308;2022-09-27T17:21:03;10.30;99.90
41481;DHT22;27217;51.220;5.308;2022-09-27T17:23:31;10.30;99.90
41481;DHT22;27217;51.220;5.308;2022-09-27T17:26:05;10.00;99.90
41481;DHT22;27217;51.220;5.308;2022-09-27T17:28:33;10.10;99.90
41481;DHT22;27217;51.220;5.308;2022-09-27T17:31:08;10.00;99.90
41481;DHT22;27217;51.220;5.308;2022-09-27T17:33:43;9.90;99.90
41481;DHT22;27217;51.220;5.308;2022-09-27T17:36:20;9.90;99.90
41481;DHT22;27217;51.220;5.308;2022-09-27T17:38:48;10.10;99.90
41481;DHT22;27217;51.220;5.308;2022-09-27T17:41:17;10.10;99.90
41481;DHT22;27217;51.220;5.308;2022-09-27T17:43:44;10.00;99.90
41481;DHT22;27217;51.220;5.308;2022-09-27T17:46:30;10.00;99.90
41481;DHT22;27217;51.220;5.308;2022-09-27T17:48:56;10.00;99.90
41481;DHT22;27217;51.220;5.308;2022-09-27T17:51:44;10.10;99.90
41481;DHT22;27217;51.220;5.308;2022-09-27T17:54:11;10.10;99.90
41481;DHT22;27217;51.220;5.308;2022-09-27T17:56:37;10.20;99.90
41481;DHT22;27217;51.220;5.308;2022-09-27T17:59:04;10.20;99.90
41481;DHT22;27217;51.220;5.308;2022-09-27T18:01:30;10.40;99.90
41481;DHT22;27217;51.220;5.308;2022-09-27T18:03:59;10.10;99.90
41481;DHT22;27217;51.220;5.308;2022-09-27T18:06:26;10.10;99.90
41481;DHT22;27217;51.220;5.308;2022-09-27T18:08:54;10.10;99.90
41481;DHT22;27217;51.220;5.308;2022-09-27T18:11:25;10.10;99.90
41481;DHT22;27217;51.220;5.308;2022-09-27T18:13:55;10.10;99.90
41481;DHT22;27217;51.220;5.308;2022-09-27T18:16:21;10.20;99.90
41481;DHT22;27217;51.220;5.308;2022-09-27T18:18:54;10.00;99.90
41481;DHT22;27217;51.220;5.308;2022-09-27T18:21:20;10.10;99.90
41481;DHT22;27217;51.220;5.308;2022-09-27T18:23:48;10.10;99.90
41481;DHT22;27217;51.220;5.308;2022-09-27T18:26:16;10.00;99.90
41481;DHT22;27217;51.220;5.308;2022-09-27T18:28:43;9.90;99.90
41481;DHT22;27217;51.220;5.308;2022-09-27T18:31:11;9.80;99.90
41481;DHT22;27217;51.220;5.308;2022-09-27T18:33:38;9.80;99.90
41481;DHT22;27217;51.220;5.308;2022-09-27T18:36:23;10.10;99.90
41481;DHT22;27217;51.220;5.308;2022-09-27T18:38:56;10.10;99.90
41481;DHT22;27217;51.220;5.308;2022-09-27T18:41:24;10.30;99.90
41481;DHT22;27217;51.220;5.308;2022-09-27T18:43:53;10.30;99.90
41481;DHT22;27217;51.220;5.308;2022-09-27T18:46:27;10.20;99.90
41481;DHT22;27217;51.220;5.308;2022-09-27T18:48:53;10.30;99.90
41481;DHT22;27217;51.220;5.308;2022-09-27T18:51:29;10.30;99.90
41481;DHT22;27217;51.220;5.308;2022-09-27T18:53:59;10.10;99.90
41481;DHT22;27217;51.220;5.308;2022-09-27T18:56:26;10.00;99.90
41481;DHT22;27217;51.220;5.308;2022-09-27T18:58:52;9.90;99.90
41481;DHT22;27217;51.220;5.308;2022-09-27T19:01:19;9.80;99.90
41481;DHT22;27217;51.220;5.308;2022-09-27T19:03:45;9.70;99.90
41481;DHT22;27217;51.220;5.308;2022-09-27T19:06:20;9.70;99.90
41481;DHT22;27217;51.220;5.308;2022-09-27T19:08:46;9.70;99.90
41481;DHT22;27217;51.220;5.308;2022-09-27T19:11:15;9.90;99.90